Time;durP1;ratioP1;P1;durP2;ratioP2;P2;SDS_P1;SDS_P2;PMS_P1;PMS_P2;Temp;Humidity;BMP_temperature;BMP_pressure;BME280_temperature;BME280_humidity;BME280_pressure;Samples;Min_cycle;Max_cycle;Signal;HPM_P1;HPM_P2
2022/03/19 00:14:41;;;;;;;;;;;;;;;;;;;;;
2022/03/19 00:25:24;;;;;;;61.10;40.67;;;8.10;99.90;;;;;;6000056;23;20198;-85
2022/03/19 02:38:20;;;;;;;57.65;39.58;;;7.60;99.90;;;;;;6191926;23;20190;-88
2022/03/19 02:55:04;;;;;;;55.05;37.55;;;7.60;99.90;;;;;;6219450;22;20218;-87
2022/03/19 03:38:05;;;;;;;57.35;36.20;;;7.20;99.90;;;;;;5904127;23;20181;-88
2022/03/19 05:16:33;;;;;;;52.13;32.05;;;6.80;99.90;;;;;;6059799;23;20216;-87
2022/03/19 05:19:00;;;;;;;49.60;32.38;;;6.80;99.90;;;;;;6240353;23;20234;-87
2022/03/19 05:21:27;;;;;;;55.65;35.33;;;6.90;99.90;;;;;;6231270;23;20182;-87
2022/03/19 05:23:54;;;;;;;55.15;34.10;;;6.60;99.90;;;;;;6233000;23;20205;-87
2022/03/19 05:26:24;;;;;;;51.80;35.17;;;6.70;99.90;;;;;;6228113;23;20251;-87
2022/03/19 05:28:51;;;;;;;51.95;34.00;;;6.70;99.90;;;;;;6239205;23;20178;-86
2022/03/19 05:31:18;;;;;;;52.05;35.50;;;6.90;99.90;;;;;;6238761;23;20163;-84
2022/03/19 05:36:31;;;;;;;51.78;32.35;;;6.90;99.90;;;;;;6222168;23;20201;-86
2022/03/19 05:38:58;;;;;;;53.70;33.75;;;6.90;99.90;;;;;;6222706;23;20246;-86
2022/03/19 05:41:25;;;;;;;47.00;30.73;;;6.50;99.90;;;;;;6226869;23;20170;-86
2022/03/19 05:43:52;;;;;;;44.17;22.60;;;7.00;99.90;;;;;;6225784;23;20190;-87
2022/03/19 05:46:19;;;;;;;48.20;29.98;;;7.10;99.90;;;;;;6227290;23;20273;-87
2022/03/19 05:48:47;;;;;;;47.00;29.45;;;6.60;99.90;;;;;;6226965;23;20189;-87
2022/03/19 05:51:14;;;;;;;50.03;31.42;;;7.00;99.90;;;;;;6228190;23;20174;-87
2022/03/19 05:53:44;;;;;;;47.20;30.08;;;6.60;99.90;;;;;;6224674;23;20182;-87
2022/03/19 05:56:13;;;;;;;59.33;33.63;;;7.00;99.90;;;;;;6226571;23;20208;-87
2022/03/19 05:58:40;;;;;;;45.35;28.70;;;7.20;99.90;;;;;;6228040;23;20178;-87
2022/03/19 06:01:07;;;;;;;47.58;31.15;;;7.20;99.90;;;;;;6227446;23;20190;-87
2022/03/19 06:03:34;;;;;;;53.83;33.92;;;7.20;99.90;;;;;;6226277;23;20672;-87
2022/03/19 06:06:04;;;;;;;51.15;33.33;;;7.00;99.90;;;;;;6226303;23;20238;-87
2022/03/19 06:08:31;;;;;;;49.60;33.20;;;6.90;99.90;;;;;;6224901;23;20162;-87
2022/03/19 06:10:58;;;;;;;54.60;34.10;;;6.90;99.90;;;;;;6236105;23;20189;-87
2022/03/19 06:13:26;;;;;;;52.15;32.63;;;6.90;99.90;;;;;;6225647;23;20178;-86
2022/03/19 06:15:53;;;;;;;46.28;28.90;;;7.00;99.90;;;;;;6220752;23;20275;-86
2022/03/19 06:18:20;;;;;;;50.25;32.50;;;7.00;99.90;;;;;;6223517;23;20182;-88
2022/03/19 06:20:48;;;;;;;50.47;32.67;;;7.00;99.90;;;;;;6222774;23;20561;-87
2022/03/19 06:23:53;;;;;;;50.40;32.20;;;7.00;99.90;;;;;;6223541;23;20194;-87
2022/03/19 06:30:46;;;;;;;52.63;33.45;;;7.10;99.90;;;;;;6222759;23;20205;-87
2022/03/19 06:33:53;;;;;;;52.60;32.78;;;7.20;99.90;;;;;;6222980;23;20681;-86
2022/03/19 06:40:07;;;;;;;;;;;;;;;;;;;;;
2022/03/19 06:46:08;;;;;;;45.10;30.13;;;7.30;99.90;;;;;;6202265;23;20194;-86
2022/03/19 06:48:49;;;;;;;49.58;32.90;;;7.20;99.90;;;;;;6222020;23;20548;-86
2022/03/19 06:51:16;;;;;;;49.75;31.45;;;6.70;99.90;;;;;;6222777;23;20198;-86
2022/03/19 06:53:44;;;;;;;46.78;31.70;;;6.90;99.90;;;;;;6230126;23;20186;-86
2022/03/19 06:56:11;;;;;;;44.53;29.95;;;7.20;99.90;;;;;;6219160;23;20217;-86
2022/03/19 06:58:41;;;;;;;37.08;24.10;;;7.00;99.90;;;;;;6220354;23;20629;-86
2022/03/19 07:01:14;;;;;;;42.28;27.13;;;7.40;99.90;;;;;;6223274;23;20185;-87
2022/03/19 07:03:42;;;;;;;44.45;29.30;;;7.20;99.90;;;;;;6224422;23;20284;-87
2022/03/19 07:06:09;;;;;;;49.13;30.70;;;7.40;99.90;;;;;;6229172;23;20703;-86
2022/03/19 07:08:36;;;;;;;47.22;30.25;;;7.30;99.90;;;;;;6230111;23;20265;-87
2022/03/19 07:11:04;;;;;;;50.75;32.25;;;7.40;99.90;;;;;;6225238;23;20241;-87
2022/03/19 07:13:32;;;;;;;47.17;32.33;;;7.50;99.90;;;;;;6224016;23;20663;-86
2022/03/19 07:16:02;;;;;;;45.88;32.53;;;7.30;99.90;;;;;;6231415;23;20210;-86
2022/03/19 07:18:30;;;;;;;45.83;29.67;;;6.90;99.90;;;;;;6242996;23;20158;-85
2022/03/19 07:20:57;;;;;;;45.53;29.58;;;7.50;99.90;;;;;;6241940;23;20189;-86
2022/03/19 07:23:24;;;;;;;48.33;34.20;;;7.20;99.90;;;;;;6239674;23;20202;-85
2022/03/19 07:25:53;;;;;;;47.63;25.88;;;7.60;99.90;;;;;;6240659;23;20254;-88
2022/03/19 07:28:20;;;;;;;49.67;33.83;;;7.70;99.90;;;;;;6233704;23;20185;-86
2022/03/19 07:30:48;;;;;;;47.03;32.10;;;7.20;99.90;;;;;;6230482;23;20206;-86
2022/03/19 07:33:16;;;;;;;46.80;32.38;;;7.50;99.90;;;;;;6228140;23;20196;-86
2022/03/19 07:35:44;;;;;;;49.05;31.20;;;7.30;99.90;;;;;;6236700;23;20197;-86
2022/03/19 07:38:11;;;;;;;47.40;33.10;;;7.70;99.90;;;;;;6231551;23;20178;-86
2022/03/19 07:43:25;;;;;;;44.78;30.65;;;7.70;99.90;;;;;;6228043;23;20189;-86
2022/03/19 07:45:58;;;;;;;49.50;32.53;;;7.80;99.90;;;;;;6240766;23;20202;-85
2022/03/19 07:51:09;;;;;;;42.05;27.15;;;8.00;99.90;;;;;;6228112;23;20222;-86
2022/03/19 07:53:38;;;;;;;34.67;22.00;;;8.00;99.90;;;;;;6226943;23;20178;-86
2022/03/19 07:56:08;;;;;;;38.42;28.63;;;7.80;99.90;;;;;;6226521;23;20245;-86
2022/03/19 07:58:35;;;;;;;37.42;26.23;;;8.00;99.90;;;;;;6228296;23;20181;-86
2022/03/19 08:01:13;;;;;;;31.75;21.05;;;8.10;99.90;;;;;;6230249;23;20169;-85
2022/03/19 08:03:41;;;;;;;41.20;24.80;;;8.30;99.90;;;;;;6227485;23;20186;-85
2022/03/19 08:06:08;;;;;;;32.97;13.25;;;8.20;99.90;;;;;;6225680;23;20194;-86
2022/03/19 08:08:36;;;;;;;39.92;26.13;;;8.20;99.90;;;;;;6239371;23;20178;-86
2022/03/19 08:11:03;;;;;;;41.92;28.23;;;8.20;99.90;;;;;;6237489;23;20189;-86
2022/03/19 08:13:30;;;;;;;32.28;21.30;;;8.20;99.90;;;;;;6227012;23;20233;-85
2022/03/19 08:15:57;;;;;;;46.47;24.70;;;8.40;99.90;;;;;;6234359;23;20210;-86
2022/03/19 08:18:25;;;;;;;34.75;22.60;;;8.50;99.90;;;;;;6229182;23;20209;-85
2022/03/19 08:20:53;;;;;;;36.58;24.00;;;8.60;99.90;;;;;;6225206;23;20212;-86
2022/03/19 08:23:20;;;;;;;38.72;25.83;;;8.70;99.90;;;;;;6222580;23;20217;-86
2022/03/19 08:25:47;;;;;;;18.63;11.68;;;8.70;99.90;;;;;;6223934;23;20280;-86
2022/03/19 08:28:14;;;;;;;30.08;21.27;;;8.70;99.40;;;;;;6225681;23;20240;-86
2022/03/19 08:30:41;;;;;;;43.40;22.80;;;8.80;99.40;;;;;;6226239;23;20193;-86
2022/03/19 08:33:08;;;;;;;31.35;21.67;;;9.00;99.10;;;;;;6225842;23;20178;-86
2022/03/19 08:35:35;;;;;;;33.33;21.60;;;9.00;98.20;;;;;;6225037;23;20260;-85
2022/03/19 08:40:50;;;;;;;35.30;22.43;;;9.10;97.40;;;;;;6228904;23;20182;-86
2022/03/19 08:43:17;;;;;;;35.00;21.15;;;9.20;97.50;;;;;;6226629;23;20449;-86
2022/03/19 08:45:44;;;;;;;32.03;24.48;;;9.20;96.90;;;;;;6227789;23;20197;-86
2022/03/19 08:48:14;;;;;;;32.25;23.00;;;9.10;96.50;;;;;;6231113;23;20170;-86
2022/03/19 08:50:41;;;;;;;32.08;21.83;;;9.20;96.70;;;;;;6233042;23;20178;-88
2022/03/19 08:53:10;;;;;;;27.85;18.60;;;9.40;95.80;;;;;;6233805;23;20178;-88
2022/03/19 08:55:37;;;;;;;27.45;16.45;;;9.40;95.10;;;;;;6233614;23;20252;-87
2022/03/19 08:58:04;;;;;;;30.40;20.95;;;9.40;94.80;;;;;;6227830;23;20185;-85
2022/03/19 09:00:31;;;;;;;31.92;19.70;;;9.50;94.80;;;;;;6240366;23;20216;-85
2022/03/19 09:03:02;;;;;;;30.40;23.77;;;9.60;94.60;;;;;;6230291;23;20182;-86
2022/03/19 09:05:32;;;;;;;41.15;16.60;;;9.50;94.30;;;;;;6227173;23;20204;-86
2022/03/19 09:07:59;;;;;;;29.80;19.63;;;9.60;93.80;;;;;;6229692;23;20166;-85
2022/03/19 09:10:35;;;;;;;27.50;18.23;;;9.60;93.70;;;;;;6233924;23;20409;-87
2022/03/19 09:13:03;;;;;;;35.70;24.35;;;9.60;93.70;;;;;;6226107;23;20516;-86
2022/03/19 09:15:38;;;;;;;36.95;22.38;;;9.70;93.80;;;;;;6226311;23;20199;-86
2022/03/19 09:18:05;;;;;;;26.77;16.87;;;9.70;93.50;;;;;;6227846;23;20170;-86
2022/03/19 09:20:35;;;;;;;35.03;20.17;;;9.80;93.50;;;;;;6227187;23;20420;-86
2022/03/19 09:23:10;;;;;;;30.33;22.00;;;9.80;93.40;;;;;;6225378;23;20178;-88
2022/03/19 09:25:39;;;;;;;16.17;11.50;;;9.90;93.60;;;;;;6225890;23;20680;-86
2022/03/19 09:28:12;;;;;;;32.57;23.00;;;10.00;92.80;;;;;;6225887;23;20417;-86
2022/03/19 09:30:39;;;;;;;36.65;24.63;;;10.10;93.20;;;;;;6227856;23;20412;-86
2022/03/19 09:33:06;;;;;;;32.37;23.83;;;10.10;92.80;;;;;;6227397;23;20193;-86
2022/03/19 09:35:37;;;;;;;32.93;22.13;;;10.20;92.80;;;;;;6229707;23;20429;-86
2022/03/19 09:38:07;;;;;;;27.80;18.17;;;10.20;92.60;;;;;;6229567;23;20396;-86
2022/03/19 09:40:47;;;;;;;33.80;23.33;;;10.30;93.00;;;;;;6225747;23;20404;-87
2022/03/19 09:43:22;;;;;;;31.13;20.70;;;10.20;93.00;;;;;;6224897;23;20255;-87
2022/03/19 09:45:51;;;;;;;34.03;25.70;;;10.30;92.70;;;;;;6224308;23;20419;-86
2022/03/19 09:48:24;;;;;;;28.00;14.80;;;10.40;92.80;;;;;;6225836;23;20436;-87
2022/03/19 09:51:10;;;;;;;31.27;21.98;;;10.60;92.10;;;;;;6225216;23;20457;-86
2022/03/19 09:53:38;;;;;;;30.80;16.90;;;10.40;92.20;;;;;;6226715;23;20256;-88
2022/03/19 09:56:06;;;;;;;32.27;22.37;;;10.40;92.20;;;;;;6231079;23;20456;-86
2022/03/19 09:58:35;;;;;;;33.07;24.47;;;10.50;92.40;;;;;;6238895;23;20410;-88
2022/03/19 10:01:29;;;;;;;27.80;15.00;;;10.50;92.30;;;;;;6227348;23;20417;-87
2022/03/19 10:04:08;;;;;;;36.10;23.03;;;10.60;91.80;;;;;;6206880;23;20426;-86
2022/03/19 10:09:56;;;;;;;30.80;20.00;;;10.70;92.20;;;;;;6205141;23;20372;-86
2022/03/19 10:12:33;;;;;;;34.33;24.33;;;10.80;91.40;;;;;;6201438;23;20415;-87
2022/03/19 10:15:10;;;;;;;29.80;19.80;;;10.90;91.50;;;;;;6196128;23;20398;-87
2022/03/19 10:17:43;;;;;;;35.80;24.73;;;10.90;91.20;;;;;;6196058;23;20696;-87
2022/03/19 10:20:13;;;;;;;36.10;23.30;;;10.90;91.30;;;;;;6194546;23;20421;-87
2022/03/19 10:22:44;;;;;;;31.60;23.10;;;10.90;90.80;;;;;;6194203;23;20430;-86
2022/03/19 10:25:17;;;;;;;34.03;24.43;;;11.10;90.70;;;;;;6193777;23;20418;-87
2022/03/19 10:27:54;;;;;;;32.13;23.83;;;11.00;90.40;;;;;;6197028;23;20836;-87
2022/03/19 10:30:23;;;;;;;33.57;23.83;;;11.10;90.30;;;;;;6198236;23;20406;-86
2022/03/19 10:32:52;;;;;;;31.67;23.60;;;11.20;90.10;;;;;;6207444;23;20402;-86
2022/03/19 10:35:28;;;;;;;34.03;23.10;;;11.40;90.00;;;;;;6202892;23;20454;-87
2022/03/19 10:38:05;;;;;;;32.50;23.27;;;11.30;88.50;;;;;;6193531;23;20816;-87
2022/03/19 10:40:41;;;;;;;19.43;13.47;;;11.30;89.30;;;;;;6196598;23;20397;-87
2022/03/19 10:43:13;;;;;;;35.20;23.77;;;11.30;89.40;;;;;;6204250;23;20387;-87
2022/03/19 10:45:44;;;;;;;37.40;24.93;;;11.30;89.80;;;;;;6199014;23;20430;-86
2022/03/19 10:48:20;;;;;;;31.67;23.60;;;11.40;90.10;;;;;;6194550;23;20418;-87
2022/03/19 10:50:49;;;;;;;39.60;26.50;;;11.40;90.00;;;;;;6194049;23;20402;-87
2022/03/19 10:53:17;;;;;;;33.70;27.13;;;11.30;90.30;;;;;;6193341;23;20469;-87
2022/03/19 10:55:44;;;;;;;34.97;25.27;;;11.40;90.70;;;;;;6194891;23;20465;-87
2022/03/19 10:58:13;;;;;;;40.17;24.67;;;11.70;90.70;;;;;;6196760;23;20464;-85
2022/03/19 11:00:41;;;;;;;36.33;24.70;;;11.70;90.20;;;;;;6194121;23;20406;-86
2022/03/19 11:03:14;;;;;;;36.90;24.77;;;11.70;90.70;;;;;;6199030;23;20421;-87
2022/03/19 11:05:48;;;;;;;34.50;26.67;;;11.80;90.90;;;;;;6200860;23;20434;-88
2022/03/19 11:08:19;;;;;;;31.63;19.83;;;12.00;90.90;;;;;;6193517;23;20472;-87
2022/03/19 11:10:48;;;;;;;33.23;22.83;;;11.90;90.60;;;;;;6194516;23;20402;-87
2022/03/19 11:13:28;;;;;;;35.33;25.90;;;11.70;91.40;;;;;;6194770;23;20533;-88
2022/03/19 11:16:04;;;;;;;35.23;23.87;;;11.90;91.60;;;;;;6195290;23;20472;-87
2022/03/19 11:18:41;;;;;;;35.60;27.40;;;12.10;90.90;;;;;;6204630;23;20480;-86
2022/03/19 12:12:31;;;;;;;13.87;8.73;;;12.20;81.00;;;;;;5973849;22;5782368;-88
2022/03/19 13:15:35;;;;;;;15.30;9.27;;;12.00;69.10;;;;;;6134653;23;20405;-86
2022/03/19 15:45:57;;;;;;;6.33;4.00;;;11.40;65.90;;;;;;6141468;23;20502;-86
2022/03/19 16:07:50;;;;;;;9.93;5.60;;;9.80;89.90;;;;;;6064210;23;20492;-85
2022/03/19 16:33:16;;;;;;;8.50;5.00;;;9.50;90.60;;;;;;6103712;23;20181;-87
2022/03/19 16:39:35;;;;;;;10.53;5.27;;;9.70;87.80;;;;;;6062124;23;20184;-84
2022/03/19 16:42:11;;;;;;;10.60;6.47;;;9.60;89.20;;;;;;6106439;23;20421;-87
2022/03/19 16:44:46;;;;;;;7.50;3.92;;;9.50;90.30;;;;;;6105922;23;20593;-87
2022/03/19 16:56:27;;;;;;;10.15;4.32;;;9.30;96.60;;;;;;6107047;23;20632;-86
2022/03/19 16:58:56;;;;;;;13.55;5.97;;;9.40;96.80;;;;;;6107046;23;20180;-86
2022/03/19 17:01:24;;;;;;;8.60;5.57;;;9.30;97.50;;;;;;6106344;23;20276;-86
2022/03/19 17:03:51;;;;;;;6.88;4.25;;;9.20;97.00;;;;;;6109299;23;20216;-88
2022/03/19 17:06:44;;;;;;;11.80;6.68;;;9.20;97.00;;;;;;6112972;23;20180;-86
2022/03/19 17:09:17;;;;;;;7.93;5.00;;;9.00;97.30;;;;;;6100580;23;20164;-87
2022/03/19 17:11:45;;;;;;;9.77;6.05;;;9.10;97.20;;;;;;6115096;23;20633;-86
2022/03/19 17:14:12;;;;;;;9.65;4.90;;;8.90;97.60;;;;;;6109676;23;20538;-85
2022/03/19 17:16:44;;;;;;;15.23;5.47;;;8.90;98.10;;;;;;6112693;23;20181;-87
2022/03/19 17:19:31;;;;;;;11.07;7.07;;;8.70;98.50;;;;;;6111744;23;20248;-86
2022/03/19 23:23:21;;;;;;;23.53;16.67;;;6.70;99.90;;;;;;6082627;23;1340457;-86
2022/03/19 23:25:50;;;;;;;26.95;19.00;;;6.60;99.90;;;;;;6132705;23;20236;-86
2022/03/19 23:28:17;;;;;;;25.58;18.15;;;6.60;99.90;;;;;;6132119;23;20483;-86
2022/03/19 23:30:44;;;;;;;24.77;18.00;;;6.60;99.90;;;;;;6131892;23;20180;-86
2022/03/19 23:33:14;;;;;;;27.90;19.83;;;6.60;99.90;;;;;;6132559;23;20204;-85
2022/03/19 23:35:41;;;;;;;30.73;18.65;;;6.60;99.90;;;;;;6131492;23;20490;-86
2022/03/19 23:38:11;;;;;;;27.52;19.67;;;6.50;99.90;;;;;;6133104;23;20227;-86
2022/03/19 23:40:41;;;;;;;31.75;20.38;;;6.70;99.90;;;;;;6147571;23;20191;-86
2022/03/19 23:43:09;;;;;;;25.98;19.48;;;6.40;99.90;;;;;;6139137;23;20200;-86
2022/03/19 23:45:37;;;;;;;29.90;18.95;;;6.70;99.90;;;;;;6135080;23;20720;-87
2022/03/19 23:48:04;;;;;;;27.08;19.98;;;6.60;99.90;;;;;;6135262;23;20202;-87
2022/03/19 23:50:31;;;;;;;30.23;19.67;;;6.60;99.90;;;;;;6138085;23;20180;-86
2022/03/19 23:52:58;;;;;;;24.60;17.90;;;6.50;99.90;;;;;;6138301;23;20204;-87
2022/03/19 23:55:25;;;;;;;26.90;17.27;;;6.60;99.90;;;;;;6135739;23;20241;-87
2022/03/19 23:57:54;;;;;;;26.60;18.60;;;6.30;99.90;;;;;;6146257;23;20647;-86
